createdAt,value
2019-01-22T00:00:15.863Z,-3.70
2019-01-22T00:02:44.547Z,-3.70
2019-01-22T00:05:13.474Z,-3.60
2019-01-22T00:07:42.150Z,-3.50
2019-01-22T00:10:11.304Z,-3.60
2019-01-22T00:12:40.310Z,-3.70
2019-01-22T00:15:11.955Z,-3.60
2019-01-22T00:17:40.999Z,-3.60
2019-01-22T00:20:12.382Z,-3.60
2019-01-22T00:22:41.030Z,-3.80
2019-01-22T00:25:11.857Z,-3.70
2019-01-22T00:27:40.530Z,-3.60
2019-01-22T00:30:15.123Z,-3.50
2019-01-22T00:32:43.878Z,-3.50
2019-01-22T00:35:12.535Z,-3.60
2019-01-22T00:37:41.399Z,-3.60
2019-01-22T00:40:12.977Z,-3.50
2019-01-22T00:42:42.101Z,-3.50
2019-01-22T00:45:10.781Z,-3.60
2019-01-22T00:47:39.801Z,-3.70
2019-01-22T00:50:17.503Z,-3.80
2019-01-22T00:52:46.176Z,-3.70
2019-01-22T00:55:17.614Z,-3.70
2019-01-22T00:57:46.285Z,-3.60
2019-01-22T01:00:20.698Z,-3.60
2019-01-22T01:02:49.475Z,-3.60
2019-01-22T01:05:18.261Z,-3.60
2019-01-22T01:07:47.513Z,-3.60
2019-01-22T01:10:16.561Z,-3.70
2019-01-22T01:12:45.253Z,-3.70
2019-01-22T01:15:15.038Z,-3.70
2019-01-22T01:17:43.890Z,-3.70
2019-01-22T01:20:18.084Z,-3.80
2019-01-22T01:22:46.782Z,-3.70
2019-01-22T01:25:17.825Z,-3.60
2019-01-22T01:27:46.497Z,-3.70
2019-01-22T01:30:17.917Z,-3.60
2019-01-22T01:32:46.590Z,-3.60
2019-01-22T01:35:15.349Z,-3.60
2019-01-22T01:37:44.367Z,-3.60
2019-01-22T01:40:15.842Z,-3.70
2019-01-22T01:42:44.593Z,-3.70
2019-01-22T01:45:13.817Z,-3.70
2019-01-22T01:47:43.045Z,-3.60
2019-01-22T01:50:13.831Z,-3.50
2019-01-22T01:52:42.474Z,-3.70
2019-01-22T01:55:13.422Z,-3.80
2019-01-22T01:57:42.081Z,-3.90
2019-01-22T02:00:13.717Z,-4.00
2019-01-22T02:02:42.390Z,-3.90
2019-01-22T02:05:11.064Z,-3.90
2019-01-22T02:07:39.819Z,-3.80
2019-01-22T02:10:11.786Z,-3.80
2019-01-22T02:12:43.541Z,-4.00
2019-01-22T02:15:33.069Z,-4.30
2019-01-22T02:18:29.085Z,-4.20
2019-01-22T02:21:09.642Z,-4.10
2019-01-22T02:23:41.274Z,-3.90
2019-01-22T02:26:28.189Z,-4.20
2019-01-22T02:29:11.842Z,-4.20
2019-01-22T02:31:58.529Z,-4.40
2019-01-22T02:34:45.278Z,-4.30
2019-01-22T02:37:39.327Z,-4.30
2019-01-22T02:40:19.581Z,-4.10
2019-01-22T02:42:57.706Z,-4.00
2019-01-22T02:45:53.626Z,-4.40
2019-01-22T02:48:28.122Z,-4.40
2019-01-22T02:51:11.949Z,-4.40
2019-01-22T02:53:43.947Z,-4.30
2019-01-22T02:56:33.184Z,-4.30
2019-01-22T02:59:13.645Z,-4.30
2019-01-22T03:02:08.417Z,-4.20
2019-01-22T03:04:40.042Z,-4.10
2019-01-22T03:07:14.601Z,-4.20
2019-01-22T03:10:16.788Z,-4.10
2019-01-22T03:12:57.523Z,-4.30
2019-01-22T03:15:29.210Z,-4.10
2019-01-22T03:18:17.717Z,-4.10
2019-01-22T03:20:55.381Z,-4.10
2019-01-22T03:23:47.882Z,-4.20
2019-01-22T03:26:25.594Z,-4.30
2019-01-22T03:29:00.117Z,-4.90
2019-01-22T03:31:37.744Z,-4.70
2019-01-22T03:34:15.697Z,-4.60
2019-01-22T03:36:50.162Z,-4.50
2019-01-22T03:39:37.341Z,-5.00
2019-01-22T03:42:24.125Z,-5.20
2019-01-22T03:45:21.333Z,-5.70
2019-01-22T03:47:55.894Z,-5.70
2019-01-22T03:50:30.592Z,-5.90
2019-01-22T03:53:27.517Z,-5.40
2019-01-22T03:56:02.133Z,-5.00
2019-01-22T03:58:30.807Z,-4.80
2019-01-22T04:01:02.710Z,-4.80
2019-01-22T04:03:31.353Z,-4.70
2019-01-22T04:06:01.405Z,-4.90
2019-01-22T04:08:30.274Z,-4.70
2019-01-22T04:11:00.430Z,-4.70
2019-01-22T04:13:29.294Z,-4.60
2019-01-22T04:15:58.007Z,-5.00
2019-01-22T04:18:26.669Z,-5.20
2019-01-22T04:20:55.321Z,-5.40
2019-01-22T04:23:27.231Z,-5.40
2019-01-22T04:26:01.462Z,-5.50
2019-01-22T04:28:36.438Z,-5.20
2019-01-22T04:31:14.149Z,-5.10
2019-01-22T04:33:58.062Z,-5.10
2019-01-22T04:36:38.630Z,-5.10
2019-01-22T04:39:26.682Z,-5.00
2019-01-22T04:42:04.081Z,-5.00
2019-01-22T04:44:53.793Z,-5.00
2019-01-22T04:47:42.007Z,-5.00
2019-01-22T04:50:37.837Z,-4.90
2019-01-22T04:53:27.617Z,-5.20
2019-01-22T04:56:02.022Z,-5.00
2019-01-22T04:58:45.547Z,-5.20
2019-01-22T05:01:26.269Z,-5.50
2019-01-22T05:04:01.090Z,-5.10
2019-01-22T05:06:35.702Z,-5.00
2019-01-22T05:09:28.698Z,-5.50
2019-01-22T05:12:21.749Z,-5.80
2019-01-22T05:14:53.369Z,-6.00
2019-01-22T05:17:39.633Z,-5.70
2019-01-22T05:20:23.203Z,-5.40
2019-01-22T05:22:57.807Z,-5.90
2019-01-22T05:25:41.000Z,-5.90
2019-01-22T05:28:18.605Z,-5.90
2019-01-22T05:30:50.234Z,-5.80
2019-01-22T05:33:33.426Z,-5.40
2019-01-22T05:36:23.402Z,-5.30
2019-01-22T05:39:04.741Z,-5.10
2019-01-22T05:41:55.777Z,-4.90
2019-01-22T05:44:27.365Z,-5.00
2019-01-22T05:47:14.209Z,-5.60
2019-01-22T05:50:11.277Z,-5.20
2019-01-22T05:53:08.634Z,-5.30
2019-01-22T05:55:55.689Z,-5.30
2019-01-22T05:59:00.934Z,-5.20
2019-01-22T06:01:31.982Z,-5.50
2019-01-22T06:04:24.502Z,-5.20
2019-01-22T06:07:02.161Z,-5.10
2019-01-22T06:09:55.146Z,-5.00
2019-01-22T06:12:35.752Z,-5.10
2019-01-22T06:15:25.446Z,-5.10
2019-01-22T06:18:02.991Z,-5.00
2019-01-22T06:20:40.760Z,-4.90
2019-01-22T06:23:18.338Z,-5.10
2019-01-22T06:26:09.665Z,-5.50
2019-01-22T06:28:59.433Z,-5.20
2019-01-22T06:31:36.894Z,-5.30
2019-01-22T06:34:23.849Z,-5.20
2019-01-22T06:37:01.611Z,-5.30
2019-01-22T06:39:36.386Z,-5.80
2019-01-22T06:42:30.090Z,-5.70
2019-01-22T06:45:22.963Z,-5.70
2019-01-22T06:48:15.717Z,-5.80
2019-01-22T06:50:50.241Z,-5.60
2019-01-22T06:53:31.137Z,-5.70
2019-01-22T06:56:22.374Z,-5.80
2019-01-22T06:59:15.225Z,-5.40
2019-01-22T07:01:46.818Z,-5.20
2019-01-22T07:04:34.698Z,-5.10
2019-01-22T07:07:06.398Z,-5.20
2019-01-22T07:09:47.097Z,-5.30
2019-01-22T07:12:21.638Z,-5.70
2019-01-22T07:15:08.466Z,-5.40
2019-01-22T07:18:01.177Z,-5.10
2019-01-22T07:20:49.333Z,-5.20
2019-01-22T07:23:39.271Z,-5.30
2019-01-22T07:26:39.902Z,-5.30
2019-01-22T07:29:26.174Z,-5.00
2019-01-22T07:32:04.929Z,-5.00
2019-01-22T07:34:59.313Z,-4.90
2019-01-22T07:37:30.909Z,-4.90
2019-01-22T07:40:02.533Z,-4.80
2019-01-22T07:42:52.594Z,-4.80
2019-01-22T07:45:32.730Z,-4.80
2019-01-22T07:48:04.336Z,-5.40
2019-01-22T07:50:57.304Z,-5.20
2019-01-22T07:53:28.921Z,-5.20
2019-01-22T07:56:23.345Z,-4.90
2019-01-22T07:59:16.401Z,-4.70
2019-01-22T08:01:56.600Z,-4.80
2019-01-22T08:05:00.413Z,-4.60
2019-01-22T08:07:51.833Z,-4.30
2019-01-22T08:10:26.433Z,-4.20
2019-01-22T08:13:00.857Z,-4.20
2019-01-22T08:15:41.734Z,-4.10
2019-01-22T08:18:28.649Z,-3.90
2019-01-22T08:21:03.044Z,-3.90
2019-01-22T08:23:46.693Z,-3.70
2019-01-22T08:26:33.446Z,-3.50
2019-01-22T08:29:21.405Z,-3.40
2019-01-22T08:32:01.987Z,-3.30
2019-01-22T08:34:42.097Z,-3.20
2019-01-22T08:37:16.866Z,-3.10
2019-01-22T08:40:06.646Z,-3.00
2019-01-22T08:42:41.049Z,-2.90
2019-01-22T08:45:37.038Z,-2.90
2019-01-22T08:48:25.433Z,-2.90
2019-01-22T08:50:59.797Z,-2.80
2019-01-22T08:53:43.566Z,-2.80
2019-01-22T08:56:21.387Z,-2.90
2019-01-22T08:58:56.193Z,-2.70
2019-01-22T09:01:36.839Z,-2.70
2019-01-22T09:04:34.311Z,-2.60
2019-01-22T09:07:11.902Z,-2.30
2019-01-22T09:09:52.702Z,-2.20
2019-01-22T09:12:30.395Z,-2.10
2019-01-22T09:15:05.066Z,-2.20
2019-01-22T09:17:39.234Z,-2.10
2019-01-22T09:20:26.029Z,-2.00
2019-01-22T09:23:09.266Z,-2.00
2019-01-22T09:25:43.885Z,-1.90
2019-01-22T09:28:35.440Z,-1.80
2019-01-22T09:31:10.057Z,-1.70
2019-01-22T09:33:50.873Z,-1.50
2019-01-22T09:36:25.690Z,-1.40
2019-01-22T09:38:54.526Z,-1.20
2019-01-22T09:41:23.186Z,-1.10
2019-01-22T09:43:51.829Z,-0.90
2019-01-22T09:46:20.507Z,-0.70
2019-01-22T09:48:49.162Z,-0.60
2019-01-22T09:51:17.843Z,-0.40
2019-01-22T09:53:46.497Z,-0.10
2019-01-22T09:56:15.171Z,0.00
2019-01-22T09:58:43.846Z,0.00
2019-01-22T10:01:12.529Z,0.30
2019-01-22T10:03:41.165Z,0.40
2019-01-22T10:06:09.874Z,0.50
2019-01-22T10:08:38.663Z,0.70
2019-01-22T10:11:07.329Z,0.80
2019-01-22T10:13:36.015Z,1.00
2019-01-22T10:16:05.070Z,1.00
2019-01-22T10:18:33.722Z,0.90
2019-01-22T10:21:02.396Z,0.70
2019-01-22T10:23:31.077Z,0.50
2019-01-22T10:25:59.740Z,0.40
2019-01-22T10:28:28.421Z,0.40
2019-01-22T10:30:57.082Z,0.50
2019-01-22T10:33:25.763Z,0.60
2019-01-22T10:35:54.485Z,0.60
2019-01-22T10:38:23.141Z,1.00
2019-01-22T10:40:51.973Z,1.30
2019-01-22T10:43:20.630Z,1.60
2019-01-22T10:45:49.289Z,2.00
2019-01-22T10:48:18.057Z,1.90
2019-01-22T10:50:46.711Z,2.20
2019-01-22T10:53:15.372Z,2.00
2019-01-22T10:55:44.017Z,2.40
2019-01-22T10:58:12.673Z,2.60
2019-01-22T11:00:41.463Z,3.00
2019-01-22T11:05:49.903Z,2.30
2019-01-22T11:08:18.588Z,2.20
2019-01-22T11:10:47.258Z,2.30
2019-01-22T11:13:15.939Z,2.30
2019-01-22T11:15:44.602Z,2.30
2019-01-22T11:18:13.306Z,2.30
2019-01-22T11:20:41.955Z,2.40
2019-01-22T11:23:10.610Z,2.50
2019-01-22T11:25:43.770Z,2.70
2019-01-22T11:28:10.336Z,2.90
2019-01-22T11:30:39.017Z,2.90
2019-01-22T11:33:07.684Z,2.80
2019-01-22T11:35:36.348Z,4.60
2019-01-22T11:38:05.102Z,3.00
2019-01-22T11:40:39.552Z,3.00
2019-01-22T11:43:08.303Z,2.70
2019-01-22T11:45:37.149Z,2.60
2019-01-22T11:48:07.021Z,2.50
2019-01-22T11:50:35.786Z,2.40
2019-01-22T11:53:04.654Z,2.20
2019-01-22T11:55:33.302Z,2.00
2019-01-22T11:58:01.975Z,2.00
2019-01-22T12:00:34.492Z,1.90
2019-01-22T12:03:03.137Z,1.80
2019-01-22T12:05:31.911Z,1.90
2019-01-22T12:08:00.557Z,1.90
2019-01-22T12:10:29.330Z,2.00
2019-01-22T12:12:57.974Z,2.00
2019-01-22T12:15:26.651Z,2.10
2019-01-22T12:17:55.565Z,2.20
2019-01-22T12:20:30.350Z,2.30
2019-01-22T12:22:59.108Z,2.50
2019-01-22T12:25:27.817Z,3.00
2019-01-22T12:27:56.572Z,3.50
2019-01-22T12:30:30.965Z,4.10
2019-01-22T12:32:59.638Z,4.30
2019-01-22T12:35:28.301Z,4.40
2019-01-22T12:37:56.975Z,4.40
2019-01-22T12:40:27.548Z,4.30
2019-01-22T12:42:56.218Z,4.30
2019-01-22T12:45:27.837Z,4.50
2019-01-22T12:47:56.488Z,4.50
2019-01-22T12:50:27.159Z,4.50
2019-01-22T12:52:55.854Z,4.60
2019-01-22T12:55:24.508Z,4.60
2019-01-22T12:57:53.186Z,4.50
2019-01-22T13:00:27.504Z,4.30
2019-01-22T13:02:56.577Z,4.20
2019-01-22T13:05:33.766Z,4.20
2019-01-22T13:08:02.434Z,4.20
2019-01-22T13:10:31.085Z,4.20
2019-01-22T13:12:59.752Z,4.10
2019-01-22T13:15:28.606Z,4.10
2019-01-22T13:17:57.261Z,3.80
2019-01-22T13:20:26.056Z,3.80
2019-01-22T13:22:54.718Z,3.80
2019-01-22T13:25:23.473Z,3.60
2019-01-22T13:27:52.181Z,3.40
2019-01-22T13:30:24.774Z,3.50
2019-01-22T13:32:53.565Z,3.50
2019-01-22T13:35:22.524Z,3.50
2019-01-22T13:37:51.401Z,3.30
2019-01-22T13:40:20.068Z,3.30
2019-01-22T13:42:49.133Z,3.30
2019-01-22T13:45:23.741Z,3.20
2019-01-22T13:47:53.307Z,3.10
2019-01-22T13:50:22.381Z,3.20
2019-01-22T13:52:51.034Z,3.10
2019-01-22T13:55:34.420Z,3.20
2019-01-22T13:58:03.082Z,3.10
2019-01-22T14:00:31.783Z,3.10
2019-01-22T14:03:01.233Z,3.10
2019-01-22T14:05:30.383Z,3.20
2019-01-22T14:07:59.561Z,2.90
2019-01-22T14:10:28.673Z,2.80
2019-01-22T14:12:57.428Z,2.70
2019-01-22T14:15:29.002Z,2.60
2019-01-22T14:17:57.657Z,2.50
2019-01-22T14:20:26.317Z,2.50
2019-01-22T14:22:54.977Z,2.40
2019-01-22T14:25:24.142Z,2.20
2019-01-22T14:27:52.817Z,2.10
2019-01-22T14:30:35.945Z,2.10
2019-01-22T14:33:05.017Z,2.10
2019-01-22T14:35:33.681Z,2.00
2019-01-22T14:38:02.429Z,2.00
2019-01-22T14:40:31.117Z,1.90
2019-01-22T14:42:59.895Z,1.70
2019-01-22T14:45:28.550Z,1.70
2019-01-22T14:47:57.207Z,1.60
2019-01-22T14:50:28.178Z,1.70
2019-01-22T14:52:56.831Z,1.60
2019-01-22T14:55:25.721Z,1.60
2019-01-22T14:57:54.501Z,1.60
2019-01-22T15:00:28.329Z,1.60
2019-01-22T15:02:58.207Z,1.30
2019-01-22T15:05:27.311Z,1.20
2019-01-22T15:07:55.956Z,1.20
2019-01-22T15:10:24.982Z,1.10
2019-01-22T15:12:55.966Z,1.00
2019-01-22T15:15:24.651Z,1.00
2019-01-22T15:17:53.415Z,1.00
2019-01-22T15:20:24.247Z,0.90
2019-01-22T15:22:53.346Z,0.80
2019-01-22T15:25:22.461Z,0.80
2019-01-22T15:27:51.150Z,0.70
2019-01-22T15:30:22.978Z,0.50
2019-01-22T15:32:51.661Z,0.60
2019-01-22T15:35:20.318Z,0.90
2019-01-22T15:37:48.996Z,0.60
2019-01-22T15:40:23.048Z,0.40
2019-01-22T15:42:51.821Z,0.50
2019-01-22T15:45:20.795Z,0.30
2019-01-22T15:47:49.475Z,0.60
2019-01-22T15:50:20.515Z,0.60
2019-01-22T15:52:49.274Z,0.50
2019-01-22T15:55:26.939Z,0.00
2019-01-22T15:57:55.636Z,0.20
2019-01-22T16:00:26.679Z,0.20
2019-01-22T16:02:55.321Z,0.30
2019-01-22T16:05:24.264Z,0.30
2019-01-22T16:07:52.930Z,0.40
2019-01-22T16:10:21.606Z,0.30
2019-01-22T16:12:50.250Z,0.00
2019-01-22T16:15:21.205Z,-0.20
2019-01-22T16:17:50.077Z,-0.10
2019-01-22T16:20:21.209Z,-0.20
2019-01-22T16:22:49.889Z,0.00
2019-01-22T16:25:18.650Z,0.10
2019-01-22T16:27:47.319Z,0.00
2019-01-22T16:30:18.098Z,-0.40
2019-01-22T16:32:46.778Z,-0.40
2019-01-22T16:35:17.909Z,-0.30
2019-01-22T16:37:46.809Z,-0.30
2019-01-22T16:40:16.567Z,-0.30
2019-01-22T16:42:45.926Z,-0.40
2019-01-22T16:45:17.539Z,-0.40
2019-01-22T16:47:46.227Z,-0.50
2019-01-22T16:50:15.610Z,-0.40
2019-01-22T16:52:44.552Z,-0.60
2019-01-22T16:55:19.259Z,-0.70
2019-01-22T16:57:47.919Z,-0.70
2019-01-22T17:00:22.470Z,-0.70
2019-01-22T17:02:51.147Z,-0.70
2019-01-22T17:05:19.904Z,-0.70
2019-01-22T17:07:48.764Z,-0.60
2019-01-22T17:10:19.222Z,-0.50
2019-01-22T17:12:48.090Z,-0.60
2019-01-22T17:15:17.254Z,-0.60
2019-01-22T17:17:45.923Z,-0.70
2019-01-22T17:20:26.573Z,-1.00
2019-01-22T17:23:01.756Z,-1.10
2019-01-22T17:25:25.694Z,-0.90
2019-01-22T17:27:54.462Z,-0.90
2019-01-22T17:30:23.957Z,-0.80
2019-01-22T17:32:57.036Z,-0.60
2019-01-22T17:35:26.020Z,-0.50
2019-01-22T17:37:54.698Z,-0.60
2019-01-22T17:40:23.370Z,-0.70
2019-01-22T17:42:52.034Z,-0.70
2019-01-22T17:45:20.698Z,-0.60
2019-01-22T17:47:49.554Z,-0.60
2019-01-22T17:50:18.618Z,-0.70
2019-01-22T17:52:47.294Z,-0.60
2019-01-22T17:55:15.948Z,-0.60
2019-01-22T17:57:44.638Z,-1.30
2019-01-22T18:00:25.244Z,-1.60
2019-01-22T18:02:53.934Z,-1.40
2019-01-22T18:05:22.602Z,-1.60
2019-01-22T18:07:51.255Z,-1.30
2019-01-22T18:10:25.353Z,-1.10
2019-01-22T18:12:54.211Z,-1.00
2019-01-22T18:15:22.887Z,-0.90
2019-01-22T18:17:51.649Z,-0.90
2019-01-22T18:20:27.803Z,-0.80
2019-01-22T18:22:56.462Z,-1.00
2019-01-22T18:25:25.122Z,-1.20
2019-01-22T18:27:53.801Z,-1.00
2019-01-22T18:30:26.568Z,-1.40
2019-01-22T18:32:55.258Z,-1.50
2019-01-22T18:35:37.978Z,-1.50
2019-01-22T18:38:02.763Z,-1.50
2019-01-22T18:40:31.409Z,-1.70
2019-01-22T18:43:00.094Z,-1.80
2019-01-22T18:45:28.758Z,-1.80
2019-01-22T18:47:58.050Z,-1.50
2019-01-22T18:50:27.409Z,-1.40
2019-01-22T18:52:56.087Z,-1.40
2019-01-22T18:55:24.773Z,-1.90
2019-01-22T18:57:53.430Z,-1.90
2019-01-22T19:00:23.886Z,-1.70
2019-01-22T19:02:52.659Z,-1.70
2019-01-22T19:05:21.900Z,-1.50
2019-01-22T19:07:50.578Z,-1.30
2019-01-22T19:10:29.659Z,-1.20
2019-01-22T19:12:58.423Z,-1.30
2019-01-22T19:15:27.089Z,-1.10
2019-01-22T19:17:55.793Z,-1.60
2019-01-22T19:20:24.442Z,-1.40
2019-01-22T19:22:53.118Z,-1.30
2019-01-22T19:25:24.394Z,-1.20
2019-01-22T19:27:53.063Z,-1.30
2019-01-22T19:30:26.759Z,-1.10
2019-01-22T19:32:55.406Z,-0.90
2019-01-22T19:35:24.081Z,-0.80
2019-01-22T19:37:52.777Z,-0.80
2019-01-22T19:40:21.463Z,-0.80
2019-01-22T19:42:50.521Z,-1.20
2019-01-22T19:45:24.658Z,-1.20
2019-01-22T19:47:53.326Z,-1.20
2019-01-22T19:50:21.991Z,-1.20
2019-01-22T19:52:50.691Z,-1.10
2019-01-22T19:55:19.345Z,-1.00
2019-01-22T19:57:48.074Z,-1.00
2019-01-22T20:00:18.925Z,-1.00
2019-01-22T20:02:47.613Z,-1.00
2019-01-22T20:05:16.794Z,-1.00
2019-01-22T20:07:45.449Z,-0.90
2019-01-22T20:10:16.610Z,-1.10
2019-01-22T20:12:45.405Z,-1.00
2019-01-22T20:15:21.465Z,-1.20
2019-01-22T20:17:50.126Z,-1.10
2019-01-22T20:20:19.799Z,-1.60
2019-01-22T20:22:48.461Z,-1.80
2019-01-22T20:25:18.128Z,-1.70
2019-01-22T20:27:48.355Z,-1.50
2019-01-22T20:30:25.964Z,-1.30
2019-01-22T20:32:54.636Z,-1.30
2019-01-22T20:35:23.307Z,-1.80
2019-01-22T20:37:52.181Z,-1.80
2019-01-22T20:40:20.921Z,-1.90
2019-01-22T20:42:49.624Z,-1.90
2019-01-22T20:45:20.974Z,-1.80
2019-01-22T20:47:49.642Z,-1.70
2019-01-22T20:50:19.395Z,-1.70
2019-01-22T20:52:48.486Z,-1.60
2019-01-22T20:55:22.397Z,-1.50
2019-01-22T20:57:55.133Z,-1.40
2019-01-22T21:00:23.367Z,-1.50
2019-01-22T21:02:52.056Z,-1.50
2019-01-22T21:05:23.262Z,-1.90
2019-01-22T21:07:52.152Z,-2.00
2019-01-22T21:10:26.269Z,-2.10
2019-01-22T21:12:55.031Z,-2.20
2019-01-22T21:15:23.706Z,-2.30
2019-01-22T21:17:52.379Z,-2.20
2019-01-22T21:20:21.429Z,-2.20
2019-01-22T21:22:50.097Z,-2.20
2019-01-22T21:25:20.577Z,-2.10
2019-01-22T21:27:49.234Z,-2.10
2019-01-22T21:30:29.614Z,-2.00
2019-01-22T21:32:58.380Z,-2.00
2019-01-22T21:35:27.238Z,-1.90
2019-01-22T21:37:55.898Z,-1.80
2019-01-22T21:40:24.544Z,-1.70
2019-01-22T21:42:53.420Z,-1.60
2019-01-22T21:45:24.409Z,-1.80
2019-01-22T21:47:53.100Z,-1.80
2019-01-22T21:50:21.852Z,-1.70
2019-01-22T21:52:50.649Z,-1.60
2019-01-22T21:55:23.523Z,-1.40
2019-01-22T21:57:52.390Z,-1.50
2019-01-22T22:00:28.080Z,-1.40
2019-01-22T22:02:56.822Z,-1.50
2019-01-22T22:05:30.337Z,-1.80
2019-01-22T22:07:59.046Z,-2.10
2019-01-22T22:10:28.122Z,-2.20
2019-01-22T22:12:56.770Z,-2.20
2019-01-22T22:15:26.645Z,-2.30
2019-01-22T22:17:55.602Z,-2.30
2019-01-22T22:20:24.306Z,-2.20
2019-01-22T22:22:52.973Z,-2.40
2019-01-22T22:25:23.255Z,-2.50
2019-01-22T22:27:52.001Z,-2.50
2019-01-22T22:30:28.974Z,-1.50
2019-01-22T22:32:58.715Z,-2.60
2019-01-22T22:35:27.467Z,-2.50
2019-01-22T22:37:56.148Z,-2.60
2019-01-22T22:40:24.817Z,-2.50
2019-01-22T22:42:53.585Z,-2.40
2019-01-22T22:45:25.434Z,-2.50
2019-01-22T22:47:54.594Z,-2.60
2019-01-22T22:50:28.452Z,-2.70
2019-01-22T22:52:57.126Z,-2.80
2019-01-22T22:55:25.929Z,-2.60
2019-01-22T22:57:54.570Z,-2.70
2019-01-22T23:00:47.680Z,-2.70
2019-01-22T23:03:16.790Z,-2.90
2019-01-22T23:05:45.453Z,-2.90
2019-01-22T23:08:14.112Z,-2.70
2019-01-22T23:10:42.794Z,-3.00
2019-01-22T23:13:11.452Z,-2.90
2019-01-22T23:15:40.406Z,-3.10
2019-01-22T23:18:09.089Z,-2.90
2019-01-22T23:20:37.766Z,-3.00
2019-01-22T23:23:06.449Z,-3.00
2019-01-22T23:25:35.117Z,-3.00
2019-01-22T23:28:03.802Z,-3.00
2019-01-22T23:30:32.642Z,-3.10
2019-01-22T23:33:01.302Z,-3.00
2019-01-22T23:35:29.991Z,-3.20
2019-01-22T23:37:58.649Z,-3.30
2019-01-22T23:40:27.361Z,-3.30
2019-01-22T23:42:56.009Z,-3.20
2019-01-22T23:45:24.702Z,-3.30
2019-01-22T23:47:53.361Z,-3.30
2019-01-22T23:50:22.010Z,-3.40
2019-01-22T23:52:50.682Z,-3.30
2019-01-22T23:55:19.334Z,-3.40
2019-01-22T23:57:48.021Z,-3.60
